This is the latest recevied weather packets stored in our database for station/object HB3YKO-13. If no packets are shown the sender has not sent any weather packets the latest 10 day(s).
| Time | Temp. | Humidity | Pressure | Rain* | Wind** | Luminosity | Snow |
|---|---|---|---|---|---|---|---|
| 1777303509 | 10° C | 26% | 0 hPa | 0 mm | - | - | - |
| 1777303209 | 10° C | 25% | 0 hPa | 0 mm | - | - | - |
| 1777302909 | 9.44° C | 26% | 0 hPa | 0 mm | - | - | - |
| 1777302609 | 9.44° C | 25% | 0 hPa | 0 mm | - | - | - |
| 1777302309 | 9.44° C | 24% | 0 hPa | 0 mm | - | - | - |
| 1777302009 | 8.89° C | 26% | 0 hPa | 0 mm | - | - | - |
| 1777301709 | -17.78° C | 100% | 0 hPa | 0 mm | - | - | - |
| 1777301409 | 8.89° C | 26% | 0 hPa | 0 mm | - | - | - |
| 1777301109 | 8.89° C | 26% | 0 hPa | 0 mm | - | - | - |
| 1777300809 | 8.89° C | 25% | 0 hPa | 0 mm | - | - | - |
| 1777300509 | 8.89° C | 26% | 0 hPa | 0 mm | - | - | - |
| 1777300209 | 8.33° C | 27% | 0 hPa | 0 mm | - | - | - |
| 1777299909 | 7.78° C | 26% | 0 hPa | 0 mm | - | - | - |
| 1777299610 | 8.33° C | 25% | 0 hPa | 0 mm | - | - | - |
| 1777299310 | 8.33° C | 27% | 0 hPa | 0 mm | - | - | - |
| 1777299009 | 8.33° C | 26% | 0 hPa | 0 mm | - | - | - |
| 1777298710 | -17.78° C | 100% | 0 hPa | 0 mm | - | - | - |
| 1777298410 | -17.78° C | 100% | 0 hPa | 0 mm | - | - | - |
| 1777298109 | 8.89° C | 25% | 0 hPa | 0 mm | - | - | - |
| 1777297810 | 8.33° C | 25% | 0 hPa | 0 mm | - | - | - |
| 1777297510 | -17.78° C | 100% | 0 hPa | 0 mm | - | - | - |
| 1777297209 | 7.78° C | 31% | 0 hPa | 0 mm | - | - | - |
| 1777296910 | 7.78° C | 30% | 0 hPa | 0 mm | - | - | - |
| 1777296610 | 9.44° C | 29% | 0 hPa | 0 mm | - | - | - |
| 1777296309 | 9.44° C | 29% | 0 hPa | 0 mm | - | - | - |
* Rain latest hour (hover to see other rain measurements)
** Current wind speed in m/s (hover to see current wind gust speed)